sensor_id;sensor_type;location;lat;lon;timestamp;temperature;humidity
12309;DHT22;6217;48.150;17.142;2022-11-10T00:03:25;12.60;99.40
12309;DHT22;6217;48.150;17.142;2022-11-10T00:07:51;12.60;99.40
12309;DHT22;6217;48.150;17.142;2022-11-10T00:12:15;12.60;99.50
12309;DHT22;6217;48.150;17.142;2022-11-10T00:16:40;12.70;99.50
12309;DHT22;6217;48.150;17.142;2022-11-10T00:21:23;12.60;99.30
12309;DHT22;6217;48.150;17.142;2022-11-10T00:25:47;12.60;99.50
12309;DHT22;6217;48.150;17.142;2022-11-10T00:30:12;12.50;99.60
12309;DHT22;6217;48.150;17.142;2022-11-10T00:34:36;12.40;99.80
12309;DHT22;6217;48.150;17.142;2022-11-10T00:39:00;12.40;99.90
12309;DHT22;6217;48.150;17.142;2022-11-10T00:43:25;12.50;99.90
12309;DHT22;6217;48.150;17.142;2022-11-10T00:47:49;12.50;99.90
12309;DHT22;6217;48.150;17.142;2022-11-10T00:52:13;12.50;99.80
12309;DHT22;6217;48.150;17.142;2022-11-10T00:56:37;12.50;99.80
12309;DHT22;6217;48.150;17.142;2022-11-10T01:01:03;12.50;99.90
12309;DHT22;6217;48.150;17.142;2022-11-10T01:05:29;12.50;99.90
12309;DHT22;6217;48.150;17.142;2022-11-10T01:09:53;12.50;99.90
12309;DHT22;6217;48.150;17.142;2022-11-10T01:14:18;12.50;99.90
12309;DHT22;6217;48.150;17.142;2022-11-10T01:18:42;12.60;99.90
12309;DHT22;6217;48.150;17.142;2022-11-10T01:23:06;12.70;99.80
12309;DHT22;6217;48.150;17.142;2022-11-10T01:27:30;12.70;99.80
12309;DHT22;6217;48.150;17.142;2022-11-10T01:31:54;12.70;99.90
12309;DHT22;6217;48.150;17.142;2022-11-10T01:36:19;12.70;99.90
12309;DHT22;6217;48.150;17.142;2022-11-10T01:40:43;12.70;99.90
12309;DHT22;6217;48.150;17.142;2022-11-10T01:50:09;12.60;99.80
12309;DHT22;6217;48.150;17.142;2022-11-10T01:54:40;12.50;99.70
12309;DHT22;6217;48.150;17.142;2022-11-10T01:59:10;12.40;99.60
12309;DHT22;6217;48.150;17.142;2022-11-10T02:03:44;12.30;99.80
12309;DHT22;6217;48.150;17.142;2022-11-10T02:08:14;12.30;99.80
12309;DHT22;6217;48.150;17.142;2022-11-10T02:12:38;12.30;99.80
12309;DHT22;6217;48.150;17.142;2022-11-10T02:17:03;12.20;99.70
12309;DHT22;6217;48.150;17.142;2022-11-10T02:21:27;12.20;99.80
12309;DHT22;6217;48.150;17.142;2022-11-10T02:25:51;12.20;99.70
12309;DHT22;6217;48.150;17.142;2022-11-10T02:30:16;12.10;99.80
12309;DHT22;6217;48.150;17.142;2022-11-10T02:34:41;12.10;99.80
12309;DHT22;6217;48.150;17.142;2022-11-10T02:39:05;12.10;99.80
12309;DHT22;6217;48.150;17.142;2022-11-10T02:43:29;12.00;99.70
12309;DHT22;6217;48.150;17.142;2022-11-10T02:47:53;12.00;99.70
12309;DHT22;6217;48.150;17.142;2022-11-10T02:52:17;11.90;99.80
12309;DHT22;6217;48.150;17.142;2022-11-10T02:56:41;12.00;99.80
12309;DHT22;6217;48.150;17.142;2022-11-10T03:01:06;11.90;99.70
12309;DHT22;6217;48.150;17.142;2022-11-10T03:05:31;11.90;99.60
12309;DHT22;6217;48.150;17.142;2022-11-10T03:09:55;11.80;99.50
12309;DHT22;6217;48.150;17.142;2022-11-10T03:14:19;11.80;99.60
12309;DHT22;6217;48.150;17.142;2022-11-10T03:18:44;11.80;99.70
12309;DHT22;6217;48.150;17.142;2022-11-10T03:23:08;11.80;99.50
12309;DHT22;6217;48.150;17.142;2022-11-10T03:27:32;11.80;99.60
12309;DHT22;6217;48.150;17.142;2022-11-10T03:31:56;11.80;99.50
12309;DHT22;6217;48.150;17.142;2022-11-10T03:36:20;11.80;99.50
12309;DHT22;6217;48.150;17.142;2022-11-10T03:40:44;11.70;99.30
12309;DHT22;6217;48.150;17.142;2022-11-10T03:45:09;11.70;99.30
12309;DHT22;6217;48.150;17.142;2022-11-10T03:49:34;11.60;99.10
12309;DHT22;6217;48.150;17.142;2022-11-10T03:53:58;11.50;99.60
12309;DHT22;6217;48.150;17.142;2022-11-10T03:58:22;11.60;99.30
12309;DHT22;6217;48.150;17.142;2022-11-10T04:02:46;11.60;99.30
12309;DHT22;6217;48.150;17.142;2022-11-10T04:07:14;11.50;99.20
12309;DHT22;6217;48.150;17.142;2022-11-10T04:11:57;11.60;99.10
12309;DHT22;6217;48.150;17.142;2022-11-10T04:16:40;11.50;99.10
12309;DHT22;6217;48.150;17.142;2022-11-10T04:21:04;11.60;99.00
12309;DHT22;6217;48.150;17.142;2022-11-10T04:25:28;11.40;98.90
12309;DHT22;6217;48.150;17.142;2022-11-10T04:29:52;11.30;99.00
12309;DHT22;6217;48.150;17.142;2022-11-10T04:34:16;11.30;99.00
12309;DHT22;6217;48.150;17.142;2022-11-10T04:38:40;11.20;99.00
12309;DHT22;6217;48.150;17.142;2022-11-10T04:43:05;11.20;99.20
12309;DHT22;6217;48.150;17.142;2022-11-10T04:47:30;11.30;98.90
12309;DHT22;6217;48.150;17.142;2022-11-10T04:51:54;11.30;98.80
12309;DHT22;6217;48.150;17.142;2022-11-10T04:56:20;11.20;98.90
12309;DHT22;6217;48.150;17.142;2022-11-10T05:00:45;11.30;98.90
12309;DHT22;6217;48.150;17.142;2022-11-10T05:05:09;11.40;98.90
12309;DHT22;6217;48.150;17.142;2022-11-10T05:09:33;11.30;98.70
12309;DHT22;6217;48.150;17.142;2022-11-10T05:13:57;11.20;98.80
12309;DHT22;6217;48.150;17.142;2022-11-10T05:18:21;11.10;98.70
12309;DHT22;6217;48.150;17.142;2022-11-10T05:22:46;11.10;98.80
12309;DHT22;6217;48.150;17.142;2022-11-10T05:27:31;11.10;98.80
12309;DHT22;6217;48.150;17.142;2022-11-10T05:31:55;11.00;98.80
12309;DHT22;6217;48.150;17.142;2022-11-10T05:36:19;10.90;98.80
12309;DHT22;6217;48.150;17.142;2022-11-10T05:40:43;10.80;98.90
12309;DHT22;6217;48.150;17.142;2022-11-10T05:45:08;10.80;98.90
12309;DHT22;6217;48.150;17.142;2022-11-10T05:49:32;10.80;98.90
12309;DHT22;6217;48.150;17.142;2022-11-10T05:53:56;10.80;98.80
12309;DHT22;6217;48.150;17.142;2022-11-10T05:58:20;10.80;98.80
12309;DHT22;6217;48.150;17.142;2022-11-10T06:02:45;10.80;98.70
12309;DHT22;6217;48.150;17.142;2022-11-10T06:07:09;10.90;98.80
12309;DHT22;6217;48.150;17.142;2022-11-10T06:11:34;11.10;98.60
12309;DHT22;6217;48.150;17.142;2022-11-10T06:15:58;11.10;98.40
12309;DHT22;6217;48.150;17.142;2022-11-10T06:20:23;11.20;98.30
12309;DHT22;6217;48.150;17.142;2022-11-10T06:24:47;11.20;98.10
12309;DHT22;6217;48.150;17.142;2022-11-10T06:29:11;11.20;98.20
12309;DHT22;6217;48.150;17.142;2022-11-10T06:33:36;11.30;98.00
12309;DHT22;6217;48.150;17.142;2022-11-10T06:38:02;11.20;97.90
12309;DHT22;6217;48.150;17.142;2022-11-10T06:42:27;11.20;98.00
12309;DHT22;6217;48.150;17.142;2022-11-10T06:46:51;11.10;98.00
12309;DHT22;6217;48.150;17.142;2022-11-10T06:51:15;11.30;98.00
12309;DHT22;6217;48.150;17.142;2022-11-10T06:55:40;11.40;97.80
12309;DHT22;6217;48.150;17.142;2022-11-10T07:00:05;11.40;97.90
12309;DHT22;6217;48.150;17.142;2022-11-10T07:04:30;11.40;97.90
12309;DHT22;6217;48.150;17.142;2022-11-10T07:08:54;11.60;97.90
12309;DHT22;6217;48.150;17.142;2022-11-10T07:13:19;11.60;97.80
12309;DHT22;6217;48.150;17.142;2022-11-10T07:17:43;11.90;97.80
12309;DHT22;6217;48.150;17.142;2022-11-10T07:22:07;12.10;97.70
12309;DHT22;6217;48.150;17.142;2022-11-10T07:26:32;12.30;97.60
12309;DHT22;6217;48.150;17.142;2022-11-10T07:30:56;12.60;97.20
12309;DHT22;6217;48.150;17.142;2022-11-10T07:35:20;12.70;97.00
12309;DHT22;6217;48.150;17.142;2022-11-10T07:39:44;12.80;97.00
12309;DHT22;6217;48.150;17.142;2022-11-10T07:44:09;12.70;97.00
12309;DHT22;6217;48.150;17.142;2022-11-10T07:48:33;12.80;97.00
12309;DHT22;6217;48.150;17.142;2022-11-10T07:53:05;12.80;97.00
12309;DHT22;6217;48.150;17.142;2022-11-10T07:57:30;12.90;96.90
12309;DHT22;6217;48.150;17.142;2022-11-10T08:01:55;12.90;96.80
12309;DHT22;6217;48.150;17.142;2022-11-10T08:06:19;13.00;96.70
12309;DHT22;6217;48.150;17.142;2022-11-10T08:10:44;13.10;96.60
12309;DHT22;6217;48.150;17.142;2022-11-10T08:15:08;13.40;96.50
12309;DHT22;6217;48.150;17.142;2022-11-10T08:19:33;13.50;96.20
12309;DHT22;6217;48.150;17.142;2022-11-10T08:23:57;13.70;95.90
12309;DHT22;6217;48.150;17.142;2022-11-10T08:28:21;13.90;95.80
12309;DHT22;6217;48.150;17.142;2022-11-10T08:32:45;14.00;95.60
12309;DHT22;6217;48.150;17.142;2022-11-10T08:37:10;14.20;95.60
12309;DHT22;6217;48.150;17.142;2022-11-10T08:41:34;14.30;95.20
12309;DHT22;6217;48.150;17.142;2022-11-10T08:45:58;14.30;95.20
12309;DHT22;6217;48.150;17.142;2022-11-10T08:50:22;14.60;95.10
12309;DHT22;6217;48.150;17.142;2022-11-10T08:54:46;14.90;94.70
12309;DHT22;6217;48.150;17.142;2022-11-10T08:59:11;15.20;94.30
12309;DHT22;6217;48.150;17.142;2022-11-10T09:03:35;15.50;94.00
12309;DHT22;6217;48.150;17.142;2022-11-10T09:07:59;15.50;93.70
12309;DHT22;6217;48.150;17.142;2022-11-10T09:12:23;15.50;93.80
12309;DHT22;6217;48.150;17.142;2022-11-10T09:16:47;15.60;93.70
12309;DHT22;6217;48.150;17.142;2022-11-10T09:21:12;15.60;93.70
12309;DHT22;6217;48.150;17.142;2022-11-10T09:25:36;15.80;93.50
12309;DHT22;6217;48.150;17.142;2022-11-10T09:30:03;16.00;93.20
12309;DHT22;6217;48.150;17.142;2022-11-10T09:34:28;15.90;93.00
12309;DHT22;6217;48.150;17.142;2022-11-10T09:38:53;16.00;93.00
12309;DHT22;6217;48.150;17.142;2022-11-10T09:43:22;16.10;92.90
12309;DHT22;6217;48.150;17.142;2022-11-10T09:48:18;16.00;92.80
12309;DHT22;6217;48.150;17.142;2022-11-10T09:52:46;15.90;92.80
12309;DHT22;6217;48.150;17.142;2022-11-10T09:57:15;15.80;93.00
12309;DHT22;6217;48.150;17.142;2022-11-10T10:01:59;15.90;92.80
12309;DHT22;6217;48.150;17.142;2022-11-10T10:06:26;15.70;92.80
12309;DHT22;6217;48.150;17.142;2022-11-10T10:11:03;15.50;92.90
12309;DHT22;6217;48.150;17.142;2022-11-10T10:24:39;15.00;93.40
12309;DHT22;6217;48.150;17.142;2022-11-10T10:29:11;14.90;93.30
12309;DHT22;6217;48.150;17.142;2022-11-10T10:33:37;14.70;93.40
12309;DHT22;6217;48.150;17.142;2022-11-10T10:38:03;14.70;93.60
12309;DHT22;6217;48.150;17.142;2022-11-10T10:42:34;14.70;93.50
12309;DHT22;6217;48.150;17.142;2022-11-10T10:47:00;14.70;93.50
12309;DHT22;6217;48.150;17.142;2022-11-10T10:51:29;14.70;93.60
12309;DHT22;6217;48.150;17.142;2022-11-10T10:56:00;14.60;93.50
12309;DHT22;6217;48.150;17.142;2022-11-10T11:00:25;14.60;93.60
12309;DHT22;6217;48.150;17.142;2022-11-10T11:09:42;14.70;93.60
12309;DHT22;6217;48.150;17.142;2022-11-10T11:14:23;14.80;93.50
12309;DHT22;6217;48.150;17.142;2022-11-10T11:18:47;14.90;93.40
12309;DHT22;6217;48.150;17.142;2022-11-10T11:33:00;15.00;93.40
12309;DHT22;6217;48.150;17.142;2022-11-10T11:43:18;15.00;93.30
12309;DHT22;6217;48.150;17.142;2022-11-10T11:48:09;14.90;93.30
12309;DHT22;6217;48.150;17.142;2022-11-10T12:16:29;14.90;93.50
12309;DHT22;6217;48.150;17.142;2022-11-10T12:30:29;14.90;93.60
12309;DHT22;6217;48.150;17.142;2022-11-10T12:35:14;15.00;93.70
12309;DHT22;6217;48.150;17.142;2022-11-10T12:39:56;15.00;93.50
12309;DHT22;6217;48.150;17.142;2022-11-10T12:44:30;15.00;93.50
12309;DHT22;6217;48.150;17.142;2022-11-10T12:49:18;15.00;93.60
12309;DHT22;6217;48.150;17.142;2022-11-10T12:53:46;14.90;93.60
12309;DHT22;6217;48.150;17.142;2022-11-10T12:58:12;14.90;93.60
12309;DHT22;6217;48.150;17.142;2022-11-10T13:02:39;14.90;93.70
12309;DHT22;6217;48.150;17.142;2022-11-10T13:07:05;14.90;93.60
12309;DHT22;6217;48.150;17.142;2022-11-10T13:11:32;14.80;93.70
12309;DHT22;6217;48.150;17.142;2022-11-10T13:15:57;14.90;93.80
12309;DHT22;6217;48.150;17.142;2022-11-10T13:30:00;15.10;93.70
12309;DHT22;6217;48.150;17.142;2022-11-10T13:34:35;15.00;93.60
12309;DHT22;6217;48.150;17.142;2022-11-10T13:39:35;15.00;93.60
12309;DHT22;6217;48.150;17.142;2022-11-10T13:43:58;14.90;93.70
12309;DHT22;6217;48.150;17.142;2022-11-10T13:58:27;14.90;93.80
12309;DHT22;6217;48.150;17.142;2022-11-10T14:02:57;14.90;93.70
12309;DHT22;6217;48.150;17.142;2022-11-10T14:07:24;14.80;93.90
12309;DHT22;6217;48.150;17.142;2022-11-10T14:12:06;14.80;93.90
12309;DHT22;6217;48.150;17.142;2022-11-10T14:16:40;14.80;93.90
12309;DHT22;6217;48.150;17.142;2022-11-10T14:21:05;14.80;94.00
12309;DHT22;6217;48.150;17.142;2022-11-10T14:25:36;14.60;94.10
12309;DHT22;6217;48.150;17.142;2022-11-10T14:34:52;14.60;94.30
12309;DHT22;6217;48.150;17.142;2022-11-10T14:39:23;14.50;94.40
12309;DHT22;6217;48.150;17.142;2022-11-10T14:44:02;14.40;94.50
12309;DHT22;6217;48.150;17.142;2022-11-10T14:48:29;14.30;94.70
12309;DHT22;6217;48.150;17.142;2022-11-10T14:53:23;14.10;94.80
12309;DHT22;6217;48.150;17.142;2022-11-10T14:57:53;14.00;95.10
12309;DHT22;6217;48.150;17.142;2022-11-10T15:02:19;13.90;95.20
12309;DHT22;6217;48.150;17.142;2022-11-10T15:06:45;13.80;95.70
12309;DHT22;6217;48.150;17.142;2022-11-10T15:11:43;13.70;95.50
12309;DHT22;6217;48.150;17.142;2022-11-10T15:20:59;13.50;95.80
12309;DHT22;6217;48.150;17.142;2022-11-10T15:25:32;13.40;96.10
12309;DHT22;6217;48.150;17.142;2022-11-10T15:29:59;13.20;95.90
12309;DHT22;6217;48.150;17.142;2022-11-10T15:34:42;13.10;96.00
12309;DHT22;6217;48.150;17.142;2022-11-10T15:43:35;12.80;96.30
12309;DHT22;6217;48.150;17.142;2022-11-10T15:47:59;12.80;96.40
12309;DHT22;6217;48.150;17.142;2022-11-10T15:52:23;12.70;96.40
12309;DHT22;6217;48.150;17.142;2022-11-10T15:56:47;12.70;96.60
12309;DHT22;6217;48.150;17.142;2022-11-10T16:01:13;12.60;96.70
12309;DHT22;6217;48.150;17.142;2022-11-10T16:05:37;12.60;96.90
12309;DHT22;6217;48.150;17.142;2022-11-10T16:10:05;12.60;97.00
12309;DHT22;6217;48.150;17.142;2022-11-10T16:14:30;12.60;97.00
12309;DHT22;6217;48.150;17.142;2022-11-10T16:18:54;12.70;97.00
12309;DHT22;6217;48.150;17.142;2022-11-10T16:23:19;12.70;97.00
12309;DHT22;6217;48.150;17.142;2022-11-10T16:27:43;12.70;97.10
12309;DHT22;6217;48.150;17.142;2022-11-10T16:32:09;12.70;97.10
12309;DHT22;6217;48.150;17.142;2022-11-10T16:36:34;12.60;97.10
12309;DHT22;6217;48.150;17.142;2022-11-10T16:41:01;12.60;97.20
12309;DHT22;6217;48.150;17.142;2022-11-10T16:45:25;12.70;97.20
12309;DHT22;6217;48.150;17.142;2022-11-10T16:49:52;12.60;97.20
12309;DHT22;6217;48.150;17.142;2022-11-10T16:54:17;12.70;97.20
12309;DHT22;6217;48.150;17.142;2022-11-10T16:58:41;12.70;97.20
12309;DHT22;6217;48.150;17.142;2022-11-10T17:03:11;12.60;97.20
12309;DHT22;6217;48.150;17.142;2022-11-10T17:07:37;12.60;97.30
12309;DHT22;6217;48.150;17.142;2022-11-10T17:12:02;12.60;97.20
12309;DHT22;6217;48.150;17.142;2022-11-10T17:16:34;12.50;97.20
12309;DHT22;6217;48.150;17.142;2022-11-10T17:21:00;12.50;97.30
12309;DHT22;6217;48.150;17.142;2022-11-10T17:25:30;12.50;97.30
12309;DHT22;6217;48.150;17.142;2022-11-10T17:29:55;12.40;97.30
12309;DHT22;6217;48.150;17.142;2022-11-10T17:34:20;12.40;97.40
12309;DHT22;6217;48.150;17.142;2022-11-10T17:38:45;12.30;97.40
12309;DHT22;6217;48.150;17.142;2022-11-10T17:43:11;12.30;97.50
12309;DHT22;6217;48.150;17.142;2022-11-10T17:47:36;12.20;97.50
12309;DHT22;6217;48.150;17.142;2022-11-10T17:52:00;12.00;97.60
12309;DHT22;6217;48.150;17.142;2022-11-10T17:56:25;12.00;97.70
12309;DHT22;6217;48.150;17.142;2022-11-10T18:00:49;12.00;97.80
12309;DHT22;6217;48.150;17.142;2022-11-10T18:05:15;12.00;97.80
12309;DHT22;6217;48.150;17.142;2022-11-10T18:09:40;11.90;97.90
12309;DHT22;6217;48.150;17.142;2022-11-10T18:14:04;11.90;98.00
12309;DHT22;6217;48.150;17.142;2022-11-10T18:18:29;11.90;98.00
12309;DHT22;6217;48.150;17.142;2022-11-10T18:22:53;11.90;98.00
12309;DHT22;6217;48.150;17.142;2022-11-10T18:27:17;11.90;98.20
12309;DHT22;6217;48.150;17.142;2022-11-10T18:31:42;11.80;98.20
12309;DHT22;6217;48.150;17.142;2022-11-10T18:36:06;12.00;98.20
12309;DHT22;6217;48.150;17.142;2022-11-10T18:40:32;12.00;98.20
12309;DHT22;6217;48.150;17.142;2022-11-10T18:44:56;12.00;98.10
12309;DHT22;6217;48.150;17.142;2022-11-10T18:49:20;12.00;98.10
12309;DHT22;6217;48.150;17.142;2022-11-10T18:53:45;12.00;98.10
12309;DHT22;6217;48.150;17.142;2022-11-10T18:58:09;12.00;98.10
12309;DHT22;6217;48.150;17.142;2022-11-10T19:02:34;12.00;98.20
12309;DHT22;6217;48.150;17.142;2022-11-10T19:06:58;12.00;98.20
12309;DHT22;6217;48.150;17.142;2022-11-10T19:11:23;11.90;98.20
12309;DHT22;6217;48.150;17.142;2022-11-10T19:15:47;12.00;98.10
12309;DHT22;6217;48.150;17.142;2022-11-10T19:20:14;11.90;98.10
12309;DHT22;6217;48.150;17.142;2022-11-10T19:24:38;11.90;98.20
12309;DHT22;6217;48.150;17.142;2022-11-10T19:29:03;11.90;98.20
12309;DHT22;6217;48.150;17.142;2022-11-10T19:33:28;11.90;98.10
12309;DHT22;6217;48.150;17.142;2022-11-10T19:37:53;11.80;98.20
12309;DHT22;6217;48.150;17.142;2022-11-10T19:42:17;11.70;98.30
12309;DHT22;6217;48.150;17.142;2022-11-10T19:46:42;11.70;98.30
12309;DHT22;6217;48.150;17.142;2022-11-10T19:51:06;11.70;98.30
12309;DHT22;6217;48.150;17.142;2022-11-10T19:55:34;11.50;98.40
12309;DHT22;6217;48.150;17.142;2022-11-10T20:00:00;11.50;98.40
12309;DHT22;6217;48.150;17.142;2022-11-10T20:04:24;11.40;98.40
12309;DHT22;6217;48.150;17.142;2022-11-10T20:08:49;11.40;98.40
12309;DHT22;6217;48.150;17.142;2022-11-10T20:13:14;11.40;98.50
12309;DHT22;6217;48.150;17.142;2022-11-10T20:17:38;11.40;98.50
12309;DHT22;6217;48.150;17.142;2022-11-10T20:22:02;11.30;98.50
12309;DHT22;6217;48.150;17.142;2022-11-10T20:26:27;11.30;98.50
12309;DHT22;6217;48.150;17.142;2022-11-10T20:30:55;11.30;98.50
12309;DHT22;6217;48.150;17.142;2022-11-10T20:35:20;11.20;98.60
12309;DHT22;6217;48.150;17.142;2022-11-10T20:39:44;11.10;98.60
12309;DHT22;6217;48.150;17.142;2022-11-10T20:44:08;11.00;98.80
12309;DHT22;6217;48.150;17.142;2022-11-10T20:48:33;11.00;98.80
12309;DHT22;6217;48.150;17.142;2022-11-10T20:52:58;11.00;98.80
12309;DHT22;6217;48.150;17.142;2022-11-10T20:57:23;11.00;98.80
12309;DHT22;6217;48.150;17.142;2022-11-10T21:01:47;11.10;98.80
12309;DHT22;6217;48.150;17.142;2022-11-10T21:06:12;11.10;98.90
12309;DHT22;6217;48.150;17.142;2022-11-10T21:10:36;11.30;98.90
12309;DHT22;6217;48.150;17.142;2022-11-10T21:15:00;11.20;98.70
12309;DHT22;6217;48.150;17.142;2022-11-10T21:19:24;11.10;98.70
12309;DHT22;6217;48.150;17.142;2022-11-10T21:23:49;11.10;98.80
12309;DHT22;6217;48.150;17.142;2022-11-10T21:28:20;11.00;98.70
12309;DHT22;6217;48.150;17.142;2022-11-10T21:32:44;10.90;99.10
12309;DHT22;6217;48.150;17.142;2022-11-10T21:37:12;10.90;98.80
12309;DHT22;6217;48.150;17.142;2022-11-10T21:41:36;10.90;98.80
12309;DHT22;6217;48.150;17.142;2022-11-10T21:46:01;10.80;98.90
12309;DHT22;6217;48.150;17.142;2022-11-10T21:50:25;10.70;98.90
12309;DHT22;6217;48.150;17.142;2022-11-10T21:54:50;10.80;98.90
12309;DHT22;6217;48.150;17.142;2022-11-10T21:59:14;10.80;98.80
12309;DHT22;6217;48.150;17.142;2022-11-10T22:03:39;11.00;98.80
12309;DHT22;6217;48.150;17.142;2022-11-10T22:08:03;11.10;98.70
12309;DHT22;6217;48.150;17.142;2022-11-10T22:12:28;11.30;98.70
12309;DHT22;6217;48.150;17.142;2022-11-10T22:17:13;11.30;98.50
12309;DHT22;6217;48.150;17.142;2022-11-10T22:21:58;11.60;98.40
12309;DHT22;6217;48.150;17.142;2022-11-10T22:26:22;11.60;98.10
12309;DHT22;6217;48.150;17.142;2022-11-10T22:30:46;11.50;98.00
12309;DHT22;6217;48.150;17.142;2022-11-10T22:35:10;11.40;98.10
12309;DHT22;6217;48.150;17.142;2022-11-10T22:39:55;11.30;98.20
12309;DHT22;6217;48.150;17.142;2022-11-10T22:44:38;11.30;98.20
12309;DHT22;6217;48.150;17.142;2022-11-10T22:49:10;11.30;98.20
12309;DHT22;6217;48.150;17.142;2022-11-10T22:53:37;11.10;98.30
12309;DHT22;6217;48.150;17.142;2022-11-10T22:58:01;11.00;98.30
12309;DHT22;6217;48.150;17.142;2022-11-10T23:02:26;10.80;98.30
12309;DHT22;6217;48.150;17.142;2022-11-10T23:06:50;10.80;98.40
12309;DHT22;6217;48.150;17.142;2022-11-10T23:11:19;10.80;98.50
12309;DHT22;6217;48.150;17.142;2022-11-10T23:15:44;10.80;98.50
12309;DHT22;6217;48.150;17.142;2022-11-10T23:20:15;10.60;98.60
12309;DHT22;6217;48.150;17.142;2022-11-10T23:24:39;10.60;98.60
12309;DHT22;6217;48.150;17.142;2022-11-10T23:29:04;10.60;98.70
12309;DHT22;6217;48.150;17.142;2022-11-10T23:33:28;10.50;98.70
12309;DHT22;6217;48.150;17.142;2022-11-10T23:37:53;10.50;98.80
12309;DHT22;6217;48.150;17.142;2022-11-10T23:42:17;10.40;98.70
12309;DHT22;6217;48.150;17.142;2022-11-10T23:46:42;10.40;98.70
12309;DHT22;6217;48.150;17.142;2022-11-10T23:51:08;10.30;98.80
12309;DHT22;6217;48.150;17.142;2022-11-10T23:55:34;10.30;98.80
12309;DHT22;6217;48.150;17.142;2022-11-10T23:59:59;10.20;98.70
